Terminal Aerodrome Forecast
Issued by NWS Grand Forks, ND

Home | Current Version | Previous Version | Graphics & Text | Print | Product List | Glossary Off
Versions: 1 2 3 4 5 6 7 8 9 10 11 12 13 14 15

000
FTUS43 KFGF 300520
TAFGFK
TAF
KGFK 300520Z 3006/0106 06009KT P6SM FEW250
     FM301600 05013G22KT P6SM SKC
     FM010100 04010KT P6SM FEW250=

USA.gov is the U.S. government's official web portal to all federal, state and local government web resources and services.